createdAt,value
2023-03-22T00:00:39.562Z,33.80
2023-03-22T00:03:08.171Z,32.30
2023-03-22T00:05:37.781Z,31.80
2023-03-22T00:08:26.187Z,30.20
2023-03-22T00:10:55.948Z,29.70
2023-03-22T00:13:26.171Z,29.60
2023-03-22T00:15:55.911Z,28.70
2023-03-22T00:18:31.887Z,31.50
2023-03-22T00:21:00.944Z,29.50
2023-03-22T00:23:29.624Z,29.30
2023-03-22T00:25:58.076Z,28.30
2023-03-22T00:28:26.958Z,27.10
2023-03-22T00:31:02.180Z,32.20
2023-03-22T00:33:31.418Z,37.10
2023-03-22T00:36:07.353Z,48.40
2023-03-22T00:38:44.855Z,56.00
2023-03-22T00:41:18.398Z,56.40
2023-03-22T00:43:48.376Z,55.20
2023-03-22T00:46:20.045Z,57.20
2023-03-22T00:48:48.986Z,57.30
2023-03-22T00:51:18.380Z,64.20
2023-03-22T00:53:49.812Z,60.70
2023-03-22T00:56:19.720Z,62.30
2023-03-22T00:58:57.001Z,63.90
2023-03-22T01:01:25.350Z,60.10
2023-03-22T01:03:55.604Z,70.40
2023-03-22T01:06:23.996Z,61.90
2023-03-22T01:08:55.278Z,61.60
2023-03-22T01:11:25.093Z,60.40
2023-03-22T01:13:54.917Z,57.50
2023-03-22T01:16:23.240Z,58.80
2023-03-22T01:18:51.810Z,61.50
2023-03-22T01:21:20.461Z,59.20
2023-03-22T01:23:49.056Z,55.80
2023-03-22T01:26:17.584Z,52.80
2023-03-22T01:28:46.371Z,49.00
2023-03-22T01:31:15.369Z,39.00
2023-03-22T01:33:44.079Z,33.10
2023-03-22T01:36:12.350Z,31.60
2023-03-22T01:38:41.052Z,29.30
2023-03-22T01:41:09.457Z,31.30
2023-03-22T01:43:39.919Z,28.40
2023-03-22T01:46:09.390Z,28.50
2023-03-22T01:48:46.102Z,28.50
2023-03-22T01:51:20.628Z,26.30
2023-03-22T01:54:40.461Z,28.30
2023-03-22T01:57:19.995Z,30.80
2023-03-22T01:59:50.218Z,30.00
2023-03-22T02:02:30.990Z,29.10
2023-03-22T02:05:07.735Z,27.10
2023-03-22T02:07:37.864Z,27.00
2023-03-22T02:10:23.519Z,26.70
2023-03-22T02:13:28.364Z,26.70
2023-03-22T02:16:22.877Z,27.70
2023-03-22T02:19:08.695Z,28.20
2023-03-22T02:21:56.366Z,28.30
2023-03-22T02:24:32.932Z,27.90
2023-03-22T02:27:23.474Z,28.90
2023-03-22T02:29:59.325Z,27.50
2023-03-22T02:32:55.763Z,28.40
2023-03-22T02:35:34.345Z,27.80
2023-03-22T02:38:21.295Z,29.50
2023-03-22T02:41:08.325Z,29.90
2023-03-22T02:43:53.103Z,29.00
2023-03-22T02:46:24.387Z,28.90
2023-03-22T02:48:55.529Z,27.60
2023-03-22T02:51:27.132Z,28.50
2023-03-22T02:54:08.352Z,30.50
2023-03-22T02:57:04.206Z,32.00
2023-03-22T02:59:34.781Z,35.70
2023-03-22T03:02:04.114Z,37.50
2023-03-22T03:04:38.248Z,37.30
2023-03-22T03:07:09.510Z,37.30
2023-03-22T03:09:38.658Z,39.70
2023-03-22T03:12:13.777Z,37.00
2023-03-22T03:14:42.368Z,38.90
2023-03-22T03:17:10.604Z,42.60
2023-03-22T03:20:17.943Z,45.00
2023-03-22T03:23:06.173Z,38.90
2023-03-22T03:26:07.535Z,42.90
2023-03-22T03:28:49.942Z,38.70
2023-03-22T03:31:26.845Z,42.20
2023-03-22T03:34:02.930Z,51.40
2023-03-22T03:36:33.760Z,41.00
2023-03-22T03:39:01.923Z,39.90
2023-03-22T03:41:31.516Z,41.70
2023-03-22T03:43:59.900Z,38.00
2023-03-22T03:46:29.363Z,44.60
2023-03-22T03:48:57.810Z,39.40
2023-03-22T03:51:27.063Z,43.60
2023-03-22T03:53:56.078Z,39.60
2023-03-22T03:56:24.514Z,38.50
2023-03-22T03:58:53.830Z,37.60
2023-03-22T04:01:24.245Z,33.70
2023-03-22T04:04:28.155Z,32.10
2023-03-22T04:07:01.675Z,34.50
2023-03-22T04:09:33.014Z,32.90
2023-03-22T04:12:12.760Z,33.90
2023-03-22T04:14:42.026Z,31.60
2023-03-22T04:17:18.419Z,30.80
2023-03-22T04:19:46.867Z,28.70
2023-03-22T04:22:18.565Z,32.20
2023-03-22T04:24:50.233Z,28.60
2023-03-22T04:27:20.501Z,27.20
2023-03-22T04:29:55.986Z,25.50
2023-03-22T04:32:48.686Z,26.40
2023-03-22T04:37:48.973Z,24.00
2023-03-22T04:40:20.969Z,26.80
2023-03-22T04:42:58.988Z,25.30
2023-03-22T04:45:44.107Z,26.50
2023-03-22T04:48:13.806Z,23.60
2023-03-22T04:50:42.260Z,26.10
2023-03-22T04:53:12.518Z,23.80
2023-03-22T04:55:47.158Z,23.40
2023-03-22T04:58:17.435Z,23.50
2023-03-22T05:00:48.116Z,24.30
2023-03-22T05:03:19.377Z,23.50
2023-03-22T05:05:52.760Z,21.90
2023-03-22T05:08:21.934Z,23.70
2023-03-22T05:10:53.332Z,23.30
2023-03-22T05:13:22.797Z,22.80
2023-03-22T05:15:52.087Z,24.30
2023-03-22T05:18:26.440Z,24.70
2023-03-22T05:20:55.829Z,23.60
2023-03-22T05:23:25.369Z,25.10
2023-03-22T05:25:58.335Z,22.20
2023-03-22T05:28:29.798Z,21.10
2023-03-22T05:31:06.496Z,23.80
2023-03-22T05:33:44.271Z,23.60
2023-03-22T05:36:12.891Z,25.20
2023-03-22T05:38:52.551Z,21.70
2023-03-22T05:41:20.953Z,23.50
2023-03-22T05:43:51.070Z,22.30
2023-03-22T05:46:20.765Z,21.40
2023-03-22T05:49:15.064Z,21.60
2023-03-22T05:51:47.582Z,24.80
2023-03-22T05:54:16.374Z,24.70
2023-03-22T05:56:49.868Z,22.70
2023-03-22T05:59:18.046Z,24.10
2023-03-22T06:01:47.294Z,22.20
2023-03-22T06:04:21.123Z,24.70
2023-03-22T06:09:44.310Z,23.20
2023-03-22T06:12:22.675Z,24.60
2023-03-22T06:14:54.962Z,23.50
2023-03-22T06:17:43.098Z,24.60
2023-03-22T06:20:18.153Z,24.00
2023-03-22T06:22:55.283Z,22.60
2023-03-22T06:25:24.578Z,22.50
2023-03-22T06:27:54.227Z,21.90
2023-03-22T06:30:23.458Z,20.50
2023-03-22T06:33:30.530Z,21.20
2023-03-22T06:36:21.578Z,21.90
2023-03-22T06:39:05.442Z,21.40
2023-03-22T06:41:34.378Z,20.90
2023-03-22T06:44:03.041Z,22.80
2023-03-22T06:46:57.161Z,22.40
2023-03-22T06:49:48.094Z,29.00
2023-03-22T06:52:23.551Z,34.50
2023-03-22T06:54:52.464Z,31.70
2023-03-22T06:57:28.011Z,32.00
2023-03-22T06:59:56.719Z,35.00
2023-03-22T07:02:25.650Z,38.20
2023-03-22T07:05:12.371Z,35.80
2023-03-22T07:07:42.053Z,44.10
2023-03-22T07:10:10.683Z,37.00
2023-03-22T07:12:41.617Z,37.90
2023-03-22T07:15:13.450Z,33.30
2023-03-22T07:18:08.602Z,33.50
2023-03-22T07:20:41.850Z,27.40
2023-03-22T07:23:11.115Z,45.00
2023-03-22T07:25:46.692Z,36.70
2023-03-22T07:28:23.193Z,33.60
2023-03-22T07:31:03.339Z,28.80
2023-03-22T07:36:05.578Z,37.10
2023-03-22T07:38:34.492Z,37.40
2023-03-22T07:41:03.545Z,36.80
2023-03-22T07:43:53.349Z,24.80
2023-03-22T07:46:24.451Z,29.40
2023-03-22T07:49:17.538Z,27.40
2023-03-22T07:52:01.190Z,31.10
2023-03-22T07:54:34.226Z,36.90
2023-03-22T07:57:09.132Z,30.50
2023-03-22T07:59:48.088Z,28.40
2023-03-22T08:02:21.139Z,25.80
2023-03-22T08:04:55.766Z,31.70
2023-03-22T08:07:32.816Z,28.20
2023-03-22T08:10:06.336Z,26.60
2023-03-22T08:12:36.619Z,26.70
2023-03-22T08:15:19.234Z,27.20
2023-03-22T08:17:50.006Z,26.80
2023-03-22T08:20:28.688Z,25.60
2023-03-22T08:23:02.014Z,26.60
2023-03-22T08:25:31.410Z,27.00
2023-03-22T08:28:06.851Z,24.10
2023-03-22T08:30:35.961Z,24.70
2023-03-22T08:33:05.083Z,22.60
2023-03-22T08:35:39.710Z,25.60
2023-03-22T08:38:11.426Z,22.80
2023-03-22T08:40:49.025Z,23.50
2023-03-22T08:43:21.214Z,24.70
2023-03-22T08:45:51.200Z,24.20
2023-03-22T08:48:21.872Z,22.60
2023-03-22T08:51:09.318Z,23.60
2023-03-22T08:54:04.729Z,27.90
2023-03-22T08:56:52.044Z,24.90
2023-03-22T08:59:46.932Z,23.60
2023-03-22T09:02:39.857Z,22.90
2023-03-22T09:05:09.322Z,21.50
2023-03-22T09:07:40.150Z,22.90
2023-03-22T09:10:17.445Z,21.00
2023-03-22T09:12:52.086Z,25.00
2023-03-22T09:15:29.966Z,20.30
2023-03-22T09:18:24.388Z,20.50
2023-03-22T09:20:53.110Z,22.00
2023-03-22T09:23:32.026Z,27.00
2023-03-22T09:28:32.262Z,23.30
2023-03-22T09:31:08.200Z,22.80
2023-03-22T09:33:41.003Z,21.40
2023-03-22T09:36:12.026Z,20.90
2023-03-22T09:38:45.509Z,21.30
2023-03-22T09:41:16.726Z,20.40
2023-03-22T09:44:01.262Z,20.10
2023-03-22T09:46:38.371Z,19.50
2023-03-22T09:49:12.289Z,17.80
2023-03-22T09:51:49.209Z,27.70
2023-03-22T09:54:21.818Z,30.20
2023-03-22T09:57:11.514Z,33.00
2023-03-22T09:59:51.313Z,25.10
2023-03-22T10:02:38.402Z,20.90
2023-03-22T10:05:12.394Z,17.00
2023-03-22T10:08:04.501Z,15.40
2023-03-22T10:10:33.686Z,13.10
2023-03-22T10:13:07.908Z,14.10
2023-03-22T10:15:40.941Z,12.00
2023-03-22T10:18:16.631Z,13.20
2023-03-22T10:21:03.949Z,10.80
2023-03-22T10:23:48.478Z,11.20
2023-03-22T10:26:31.997Z,13.00
2023-03-22T10:29:04.092Z,12.90
2023-03-22T10:31:33.011Z,10.50
2023-03-22T10:34:23.789Z,11.10
2023-03-22T10:36:53.002Z,10.30
2023-03-22T10:39:38.618Z,13.70
2023-03-22T10:42:14.635Z,9.00
2023-03-22T10:45:10.255Z,9.50
2023-03-22T10:47:58.139Z,11.50
2023-03-22T10:50:42.589Z,13.60
2023-03-22T10:53:29.801Z,7.20
2023-03-22T10:55:58.719Z,7.10
2023-03-22T10:58:31.698Z,7.50
2023-03-22T11:01:07.625Z,7.90
2023-03-22T11:03:39.061Z,6.70
2023-03-22T11:06:24.749Z,5.70
2023-03-22T11:08:58.735Z,6.30
2023-03-22T11:11:31.649Z,6.70
2023-03-22T11:14:05.104Z,7.50
2023-03-22T11:17:06.509Z,7.10
2023-03-22T11:19:51.473Z,7.20
2023-03-22T11:22:41.449Z,7.20
2023-03-22T11:25:31.393Z,6.60
2023-03-22T11:28:04.426Z,9.00
2023-03-22T11:30:34.421Z,9.20
2023-03-22T11:33:08.406Z,13.50
2023-03-22T11:38:07.719Z,8.50
2023-03-22T11:40:37.262Z,11.90
2023-03-22T11:43:16.090Z,10.30
2023-03-22T11:45:44.876Z,35.30
2023-03-22T11:48:27.674Z,19.00
2023-03-22T11:51:03.782Z,9.50
2023-03-22T11:53:35.459Z,7.50
2023-03-22T11:56:07.636Z,7.50
2023-03-22T11:59:04.150Z,6.30
2023-03-22T12:01:47.287Z,6.50
2023-03-22T12:04:18.149Z,5.20
2023-03-22T12:06:48.650Z,6.30
2023-03-22T12:09:44.641Z,6.40
2023-03-22T12:12:23.189Z,5.60
2023-03-22T12:14:52.932Z,8.00
2023-03-22T12:17:28.116Z,11.00
2023-03-22T12:20:08.698Z,8.30
2023-03-22T12:22:41.781Z,11.30
2023-03-22T12:25:22.439Z,11.60
2023-03-22T12:27:57.969Z,11.00
2023-03-22T12:30:28.502Z,12.10
2023-03-22T12:33:04.901Z,8.30
2023-03-22T12:35:35.717Z,7.60
2023-03-22T12:38:22.561Z,8.70
2023-03-22T12:40:52.410Z,9.40
2023-03-22T12:43:39.647Z,8.50
2023-03-22T12:46:25.813Z,12.00
2023-03-22T12:49:11.173Z,9.30
2023-03-22T12:51:42.115Z,9.30
2023-03-22T12:54:11.883Z,12.40
2023-03-22T12:56:41.332Z,12.90
2023-03-22T12:59:23.566Z,17.80
2023-03-22T13:02:01.693Z,33.60
2023-03-22T13:04:37.944Z,17.50
2023-03-22T13:07:11.252Z,16.40
2023-03-22T13:09:49.968Z,14.40
2023-03-22T13:12:24.765Z,9.70
2023-03-22T13:15:01.073Z,9.00
2023-03-22T13:17:29.935Z,14.50
2023-03-22T13:20:15.805Z,12.60
2023-03-22T13:22:47.339Z,12.70
2023-03-22T13:25:23.862Z,8.80
2023-03-22T13:27:53.181Z,11.80
2023-03-22T13:30:35.845Z,22.10
2023-03-22T13:33:10.532Z,21.20
2023-03-22T13:35:46.155Z,73.50
2023-03-22T13:38:23.307Z,48.90
2023-03-22T13:40:54.886Z,35.30
2023-03-22T13:43:47.090Z,79.90
2023-03-22T13:46:18.192Z,27.10
2023-03-22T13:48:47.694Z,18.70
2023-03-22T13:51:27.017Z,12.20
2023-03-22T13:54:18.247Z,18.40
2023-03-22T13:56:53.180Z,15.80
2023-03-22T13:59:29.949Z,12.00
2023-03-22T14:02:16.045Z,11.30
2023-03-22T14:04:56.295Z,13.40
2023-03-22T14:07:48.981Z,7.70
2023-03-22T14:10:25.805Z,12.00
2023-03-22T14:12:58.583Z,11.00
2023-03-22T14:15:36.363Z,16.20
2023-03-22T14:18:42.329Z,16.90
2023-03-22T14:21:14.430Z,16.50
